createdAt,value
2022-12-01T00:12:41.207Z,2.60
2022-12-01T00:32:41.216Z,2.71
2022-12-01T00:52:41.229Z,2.92
2022-12-01T01:12:41.231Z,3.01
2022-12-01T01:32:41.152Z,3.08
2022-12-01T01:52:41.201Z,3.11
2022-12-01T02:12:41.184Z,3.31
2022-12-01T02:32:41.198Z,3.05
2022-12-01T02:52:41.217Z,3.18
2022-12-01T03:12:41.221Z,3.18
2022-12-01T03:32:41.130Z,3.36
2022-12-01T03:52:41.149Z,3.41
2022-12-01T04:12:41.165Z,3.63
2022-12-01T04:32:41.198Z,3.47
2022-12-01T04:52:41.192Z,3.49
2022-12-01T05:12:41.211Z,3.72
2022-12-01T05:32:41.245Z,3.74
2022-12-01T05:52:41.126Z,3.82
2022-12-01T06:12:41.139Z,3.79
2022-12-01T06:32:41.158Z,3.65
2022-12-01T06:52:41.168Z,3.68
2022-12-01T07:12:41.202Z,3.78
2022-12-01T07:32:41.239Z,3.97
2022-12-01T07:52:41.266Z,3.96
2022-12-01T08:12:41.180Z,3.99
2022-12-01T08:32:41.145Z,4.04
2022-12-01T08:52:41.197Z,4.04
2022-12-01T09:12:41.215Z,4.06
2022-12-01T09:32:41.148Z,4.27
2022-12-01T09:52:41.099Z,4.24
2022-12-01T10:12:41.167Z,4.27
2022-12-01T10:52:41.287Z,4.45
2022-12-01T11:12:41.251Z,4.49
2022-12-01T11:32:41.272Z,4.30
2022-12-01T11:52:41.280Z,4.30
2022-12-01T12:12:41.320Z,4.18
2022-12-01T12:32:41.207Z,4.16
2022-12-01T12:52:41.215Z,4.35
2022-12-01T13:12:41.506Z,4.52
2022-12-01T13:32:41.109Z,4.57
2022-12-01T13:52:41.246Z,4.60
2022-12-01T14:12:41.106Z,4.40
2022-12-01T14:32:41.104Z,4.30
2022-12-01T14:52:41.020Z,4.45
2022-12-01T15:12:41.040Z,4.48
2022-12-01T15:32:41.057Z,4.57
2022-12-01T15:52:41.064Z,4.55
2022-12-01T16:12:41.081Z,4.52
2022-12-01T16:32:40.989Z,4.57
2022-12-01T16:52:41.005Z,4.58
2022-12-01T17:12:41.018Z,4.50
2022-12-01T17:32:41.034Z,4.42
2022-12-01T17:52:41.048Z,4.30
2022-12-01T18:12:41.061Z,4.35
2022-12-01T18:32:40.974Z,4.27
2022-12-01T18:52:41.004Z,4.27
2022-12-01T19:12:41.035Z,4.24
2022-12-01T19:32:41.041Z,4.29
2022-12-01T19:52:41.028Z,4.41
2022-12-01T20:12:40.953Z,4.48
2022-12-01T20:32:40.960Z,4.43
2022-12-01T20:52:40.970Z,4.34
2022-12-01T21:12:41.125Z,4.19
2022-12-01T21:32:41.009Z,4.24
2022-12-01T21:52:41.113Z,4.24
2022-12-01T22:12:40.925Z,4.36
2022-12-01T22:32:41.097Z,4.18
2022-12-01T22:52:40.956Z,4.19
2022-12-01T23:12:41.041Z,4.20
2022-12-01T23:32:41.133Z,4.18
2022-12-01T23:52:40.895Z,4.23
